sensor_id;sensor_type;location;lat;lon;timestamp;P1;durP1;ratioP1;P2;durP2;ratioP2
70800;SDS011;59616;52.170;5.386;2023-07-28T00:01:10;24.98;;;10.35;;
70800;SDS011;59616;52.170;5.386;2023-07-28T00:03:38;24.30;;;10.65;;
70800;SDS011;59616;52.170;5.386;2023-07-28T00:06:05;23.83;;;10.35;;
70800;SDS011;59616;52.170;5.386;2023-07-28T00:08:32;20.48;;;9.65;;
70800;SDS011;59616;52.170;5.386;2023-07-28T00:11:00;21.52;;;10.57;;
70800;SDS011;59616;52.170;5.386;2023-07-28T00:13:27;22.45;;;10.20;;
70800;SDS011;59616;52.170;5.386;2023-07-28T00:15:54;22.73;;;10.40;;
70800;SDS011;59616;52.170;5.386;2023-07-28T00:18:21;23.08;;;10.68;;
70800;SDS011;59616;52.170;5.386;2023-07-28T00:20:49;22.25;;;9.63;;
70800;SDS011;59616;52.170;5.386;2023-07-28T00:23:16;22.13;;;9.30;;
70800;SDS011;59616;52.170;5.386;2023-07-28T00:25:43;20.38;;;9.55;;
70800;SDS011;59616;52.170;5.386;2023-07-28T00:28:11;20.50;;;9.55;;
70800;SDS011;59616;52.170;5.386;2023-07-28T00:30:40;18.83;;;8.65;;
70800;SDS011;59616;52.170;5.386;2023-07-28T00:33:07;17.88;;;8.23;;
70800;SDS011;59616;52.170;5.386;2023-07-28T00:35:36;14.65;;;7.75;;
70800;SDS011;59616;52.170;5.386;2023-07-28T00:38:04;19.98;;;8.18;;
70800;SDS011;59616;52.170;5.386;2023-07-28T00:40:32;22.13;;;8.35;;
70800;SDS011;59616;52.170;5.386;2023-07-28T00:42:59;17.85;;;7.18;;
70800;SDS011;59616;52.170;5.386;2023-07-28T00:45:26;20.20;;;7.55;;
70800;SDS011;59616;52.170;5.386;2023-07-28T00:47:55;18.92;;;8.05;;
70800;SDS011;59616;52.170;5.386;2023-07-28T00:50:26;22.38;;;8.15;;
70800;SDS011;59616;52.170;5.386;2023-07-28T00:52:53;19.00;;;8.35;;
70800;SDS011;59616;52.170;5.386;2023-07-28T00:55:22;16.73;;;8.05;;
70800;SDS011;59616;52.170;5.386;2023-07-28T00:57:50;18.40;;;7.80;;
70800;SDS011;59616;52.170;5.386;2023-07-28T01:00:17;17.58;;;7.70;;
70800;SDS011;59616;52.170;5.386;2023-07-28T01:02:44;19.48;;;7.32;;
70800;SDS011;59616;52.170;5.386;2023-07-28T01:05:12;21.67;;;7.45;;
70800;SDS011;59616;52.170;5.386;2023-07-28T01:08:26;18.48;;;8.32;;
70800;SDS011;59616;52.170;5.386;2023-07-28T01:10:32;16.83;;;7.35;;
70800;SDS011;59616;52.170;5.386;2023-07-28T01:12:59;20.88;;;8.85;;
70800;SDS011;59616;52.170;5.386;2023-07-28T01:15:27;20.38;;;7.80;;
70800;SDS011;59616;52.170;5.386;2023-07-28T01:17:54;18.27;;;7.32;;
70800;SDS011;59616;52.170;5.386;2023-07-28T01:20:22;18.33;;;7.57;;
70800;SDS011;59616;52.170;5.386;2023-07-28T01:23:05;19.33;;;7.20;;
70800;SDS011;59616;52.170;5.386;2023-07-28T01:25:39;18.67;;;8.15;;
70800;SDS011;59616;52.170;5.386;2023-07-28T01:28:10;25.92;;;8.10;;
70800;SDS011;59616;52.170;5.386;2023-07-28T01:30:39;17.65;;;7.28;;
70800;SDS011;59616;52.170;5.386;2023-07-28T01:33:07;20.55;;;8.30;;
70800;SDS011;59616;52.170;5.386;2023-07-28T01:35:37;18.45;;;7.50;;
70800;SDS011;59616;52.170;5.386;2023-07-28T01:38:05;17.77;;;7.25;;
70800;SDS011;59616;52.170;5.386;2023-07-28T01:40:32;19.25;;;7.97;;
70800;SDS011;59616;52.170;5.386;2023-07-28T01:42:59;20.38;;;8.10;;
70800;SDS011;59616;52.170;5.386;2023-07-28T01:45:26;20.27;;;8.52;;
70800;SDS011;59616;52.170;5.386;2023-07-28T01:47:54;21.25;;;7.45;;
70800;SDS011;59616;52.170;5.386;2023-07-28T01:50:21;26.17;;;8.65;;
70800;SDS011;59616;52.170;5.386;2023-07-28T01:52:49;18.02;;;7.38;;
70800;SDS011;59616;52.170;5.386;2023-07-28T01:55:17;22.08;;;9.10;;
70800;SDS011;59616;52.170;5.386;2023-07-28T01:57:54;17.70;;;7.70;;
70800;SDS011;59616;52.170;5.386;2023-07-28T02:00:21;23.75;;;8.05;;
70800;SDS011;59616;52.170;5.386;2023-07-28T02:02:49;22.52;;;8.02;;
70800;SDS011;59616;52.170;5.386;2023-07-28T02:05:16;21.67;;;7.70;;
70800;SDS011;59616;52.170;5.386;2023-07-28T02:07:44;21.58;;;8.15;;
70800;SDS011;59616;52.170;5.386;2023-07-28T02:10:11;19.40;;;7.63;;
70800;SDS011;59616;52.170;5.386;2023-07-28T02:12:39;20.92;;;7.05;;
70800;SDS011;59616;52.170;5.386;2023-07-28T02:15:06;19.33;;;6.45;;
70800;SDS011;59616;52.170;5.386;2023-07-28T02:17:34;20.27;;;7.30;;
70800;SDS011;59616;52.170;5.386;2023-07-28T02:20:01;23.27;;;7.70;;
70800;SDS011;59616;52.170;5.386;2023-07-28T02:22:30;22.30;;;7.07;;
70800;SDS011;59616;52.170;5.386;2023-07-28T02:24:57;19.23;;;6.53;;
70800;SDS011;59616;52.170;5.386;2023-07-28T02:27:28;24.73;;;7.85;;
70800;SDS011;59616;52.170;5.386;2023-07-28T02:29:55;26.05;;;7.93;;
70800;SDS011;59616;52.170;5.386;2023-07-28T02:32:22;24.25;;;7.95;;
70800;SDS011;59616;52.170;5.386;2023-07-28T02:34:50;23.33;;;8.00;;
70800;SDS011;59616;52.170;5.386;2023-07-28T02:37:17;24.98;;;8.32;;
70800;SDS011;59616;52.170;5.386;2023-07-28T02:39:45;26.70;;;8.80;;
70800;SDS011;59616;52.170;5.386;2023-07-28T02:42:13;24.75;;;8.75;;
70800;SDS011;59616;52.170;5.386;2023-07-28T02:44:40;25.80;;;8.88;;
70800;SDS011;59616;52.170;5.386;2023-07-28T02:47:07;27.52;;;8.45;;
70800;SDS011;59616;52.170;5.386;2023-07-28T02:49:35;27.60;;;9.57;;
70800;SDS011;59616;52.170;5.386;2023-07-28T02:52:02;23.20;;;8.43;;
70800;SDS011;59616;52.170;5.386;2023-07-28T02:54:29;27.17;;;8.55;;
70800;SDS011;59616;52.170;5.386;2023-07-28T02:56:57;22.20;;;8.88;;
70800;SDS011;59616;52.170;5.386;2023-07-28T02:59:24;26.05;;;9.02;;
70800;SDS011;59616;52.170;5.386;2023-07-28T03:01:52;28.15;;;8.20;;
70800;SDS011;59616;52.170;5.386;2023-07-28T03:04:19;31.42;;;8.70;;
70800;SDS011;59616;52.170;5.386;2023-07-28T03:07:05;25.67;;;8.77;;
70800;SDS011;59616;52.170;5.386;2023-07-28T03:09:34;26.23;;;8.80;;
70800;SDS011;59616;52.170;5.386;2023-07-28T03:12:02;24.02;;;8.93;;
70800;SDS011;59616;52.170;5.386;2023-07-28T03:14:31;26.55;;;9.32;;
70800;SDS011;59616;52.170;5.386;2023-07-28T03:16:59;25.83;;;8.50;;
70800;SDS011;59616;52.170;5.386;2023-07-28T03:19:26;26.05;;;8.68;;
70800;SDS011;59616;52.170;5.386;2023-07-28T03:21:54;29.73;;;9.25;;
70800;SDS011;59616;52.170;5.386;2023-07-28T03:24:21;26.17;;;8.57;;
70800;SDS011;59616;52.170;5.386;2023-07-28T03:26:48;32.70;;;9.10;;
70800;SDS011;59616;52.170;5.386;2023-07-28T03:29:16;31.55;;;9.02;;
70800;SDS011;59616;52.170;5.386;2023-07-28T03:31:44;26.98;;;8.85;;
70800;SDS011;59616;52.170;5.386;2023-07-28T03:34:12;28.70;;;9.00;;
70800;SDS011;59616;52.170;5.386;2023-07-28T03:36:40;24.02;;;8.50;;
70800;SDS011;59616;52.170;5.386;2023-07-28T03:39:08;29.95;;;9.20;;
70800;SDS011;59616;52.170;5.386;2023-07-28T03:41:35;25.73;;;9.18;;
70800;SDS011;59616;52.170;5.386;2023-07-28T03:44:02;33.83;;;10.57;;
70800;SDS011;59616;52.170;5.386;2023-07-28T03:46:30;26.25;;;9.75;;
70800;SDS011;59616;52.170;5.386;2023-07-28T03:48:57;35.72;;;10.05;;
70800;SDS011;59616;52.170;5.386;2023-07-28T03:51:26;29.95;;;10.32;;
70800;SDS011;59616;52.170;5.386;2023-07-28T03:53:53;29.58;;;10.30;;
70800;SDS011;59616;52.170;5.386;2023-07-28T03:56:21;34.17;;;10.27;;
70800;SDS011;59616;52.170;5.386;2023-07-28T03:58:48;38.25;;;11.27;;
70800;SDS011;59616;52.170;5.386;2023-07-28T04:01:16;31.60;;;10.60;;
70800;SDS011;59616;52.170;5.386;2023-07-28T04:03:44;33.55;;;10.57;;
70800;SDS011;59616;52.170;5.386;2023-07-28T04:06:11;35.15;;;10.90;;
70800;SDS011;59616;52.170;5.386;2023-07-28T04:08:39;33.17;;;11.77;;
70800;SDS011;59616;52.170;5.386;2023-07-28T04:11:07;36.45;;;11.63;;
70800;SDS011;59616;52.170;5.386;2023-07-28T04:13:34;32.63;;;10.95;;
70800;SDS011;59616;52.170;5.386;2023-07-28T04:16:01;38.03;;;11.75;;
70800;SDS011;59616;52.170;5.386;2023-07-28T04:18:29;36.63;;;12.65;;
70800;SDS011;59616;52.170;5.386;2023-07-28T04:20:57;34.35;;;11.85;;
70800;SDS011;59616;52.170;5.386;2023-07-28T04:23:25;31.65;;;10.45;;
70800;SDS011;59616;52.170;5.386;2023-07-28T04:25:52;32.50;;;11.27;;
70800;SDS011;59616;52.170;5.386;2023-07-28T04:28:20;35.05;;;11.70;;
70800;SDS011;59616;52.170;5.386;2023-07-28T04:30:51;40.95;;;11.50;;
70800;SDS011;59616;52.170;5.386;2023-07-28T04:33:44;31.13;;;11.13;;
70800;SDS011;59616;52.170;5.386;2023-07-28T04:36:11;33.28;;;11.57;;
70800;SDS011;59616;52.170;5.386;2023-07-28T04:38:38;32.35;;;11.20;;
70800;SDS011;59616;52.170;5.386;2023-07-28T04:41:06;33.10;;;11.15;;
70800;SDS011;59616;52.170;5.386;2023-07-28T04:43:46;36.63;;;12.68;;
70800;SDS011;59616;52.170;5.386;2023-07-28T04:46:14;34.08;;;11.65;;
70800;SDS011;59616;52.170;5.386;2023-07-28T04:48:43;36.78;;;11.77;;
70800;SDS011;59616;52.170;5.386;2023-07-28T04:51:30;34.35;;;11.52;;
70800;SDS011;59616;52.170;5.386;2023-07-28T04:54:19;36.72;;;12.38;;
70800;SDS011;59616;52.170;5.386;2023-07-28T04:56:46;35.65;;;12.27;;
70800;SDS011;59616;52.170;5.386;2023-07-28T04:59:16;35.92;;;11.98;;
70800;SDS011;59616;52.170;5.386;2023-07-28T05:01:43;36.45;;;11.55;;
70800;SDS011;59616;52.170;5.386;2023-07-28T05:04:10;35.15;;;11.88;;
70800;SDS011;59616;52.170;5.386;2023-07-28T05:06:38;35.10;;;11.13;;
70800;SDS011;59616;52.170;5.386;2023-07-28T05:09:05;38.55;;;11.75;;
70800;SDS011;59616;52.170;5.386;2023-07-28T05:11:34;32.78;;;11.38;;
70800;SDS011;59616;52.170;5.386;2023-07-28T05:14:02;33.20;;;11.10;;
70800;SDS011;59616;52.170;5.386;2023-07-28T05:16:32;35.30;;;11.68;;
70800;SDS011;59616;52.170;5.386;2023-07-28T05:19:06;38.22;;;12.45;;
70800;SDS011;59616;52.170;5.386;2023-07-28T05:21:46;34.58;;;11.80;;
70800;SDS011;59616;52.170;5.386;2023-07-28T05:24:15;31.23;;;11.75;;
70800;SDS011;59616;52.170;5.386;2023-07-28T05:26:44;35.25;;;12.50;;
70800;SDS011;59616;52.170;5.386;2023-07-28T05:29:12;33.40;;;11.63;;
70800;SDS011;59616;52.170;5.386;2023-07-28T05:31:39;38.75;;;11.90;;
70800;SDS011;59616;52.170;5.386;2023-07-28T05:34:16;35.33;;;11.90;;
70800;SDS011;59616;52.170;5.386;2023-07-28T05:36:44;33.55;;;11.73;;
70800;SDS011;59616;52.170;5.386;2023-07-28T05:39:11;38.35;;;12.02;;
70800;SDS011;59616;52.170;5.386;2023-07-28T05:41:43;29.83;;;10.85;;
70800;SDS011;59616;52.170;5.386;2023-07-28T05:44:11;31.30;;;11.02;;
70800;SDS011;59616;52.170;5.386;2023-07-28T05:46:38;31.92;;;10.55;;
70800;SDS011;59616;52.170;5.386;2023-07-28T05:49:06;32.83;;;10.25;;
70800;SDS011;59616;52.170;5.386;2023-07-28T05:51:34;31.35;;;10.55;;
70800;SDS011;59616;52.170;5.386;2023-07-28T05:54:01;27.65;;;9.68;;
70800;SDS011;59616;52.170;5.386;2023-07-28T05:56:29;28.88;;;10.35;;
70800;SDS011;59616;52.170;5.386;2023-07-28T05:58:56;30.80;;;9.95;;
70800;SDS011;59616;52.170;5.386;2023-07-28T06:01:23;33.75;;;10.07;;
70800;SDS011;59616;52.170;5.386;2023-07-28T06:04:02;26.42;;;9.55;;
70800;SDS011;59616;52.170;5.386;2023-07-28T06:06:33;30.00;;;10.07;;
70800;SDS011;59616;52.170;5.386;2023-07-28T06:09:00;30.83;;;9.95;;
70800;SDS011;59616;52.170;5.386;2023-07-28T06:11:28;23.65;;;9.18;;
70800;SDS011;59616;52.170;5.386;2023-07-28T06:13:55;28.92;;;9.93;;
70800;SDS011;59616;52.170;5.386;2023-07-28T06:16:24;32.67;;;9.95;;
70800;SDS011;59616;52.170;5.386;2023-07-28T06:18:51;23.38;;;9.43;;
70800;SDS011;59616;52.170;5.386;2023-07-28T06:21:21;26.17;;;9.55;;
70800;SDS011;59616;52.170;5.386;2023-07-28T06:23:49;27.38;;;10.15;;
70800;SDS011;59616;52.170;5.386;2023-07-28T06:26:16;27.58;;;8.88;;
70800;SDS011;59616;52.170;5.386;2023-07-28T06:28:44;28.58;;;9.82;;
70800;SDS011;59616;52.170;5.386;2023-07-28T06:31:12;27.60;;;10.82;;
70800;SDS011;59616;52.170;5.386;2023-07-28T06:33:39;27.85;;;9.18;;
70800;SDS011;59616;52.170;5.386;2023-07-28T06:36:07;24.52;;;9.65;;
70800;SDS011;59616;52.170;5.386;2023-07-28T06:38:34;24.63;;;9.65;;
70800;SDS011;59616;52.170;5.386;2023-07-28T06:41:01;23.65;;;9.55;;
70800;SDS011;59616;52.170;5.386;2023-07-28T06:43:29;23.13;;;8.80;;
70800;SDS011;59616;52.170;5.386;2023-07-28T06:46:00;24.65;;;8.80;;
70800;SDS011;59616;52.170;5.386;2023-07-28T06:48:27;24.42;;;9.25;;
70800;SDS011;59616;52.170;5.386;2023-07-28T06:50:55;27.90;;;9.43;;
70800;SDS011;59616;52.170;5.386;2023-07-28T06:53:22;23.35;;;9.27;;
70800;SDS011;59616;52.170;5.386;2023-07-28T06:55:49;23.83;;;8.75;;
70800;SDS011;59616;52.170;5.386;2023-07-28T06:58:17;24.67;;;9.32;;
70800;SDS011;59616;52.170;5.386;2023-07-28T07:00:45;25.27;;;10.18;;
70800;SDS011;59616;52.170;5.386;2023-07-28T07:03:12;25.80;;;9.60;;
70800;SDS011;59616;52.170;5.386;2023-07-28T07:05:40;24.80;;;10.02;;
70800;SDS011;59616;52.170;5.386;2023-07-28T07:08:08;26.48;;;10.45;;
70800;SDS011;59616;52.170;5.386;2023-07-28T07:10:35;28.05;;;10.35;;
70800;SDS011;59616;52.170;5.386;2023-07-28T07:13:02;27.23;;;10.13;;
70800;SDS011;59616;52.170;5.386;2023-07-28T07:15:29;22.00;;;9.38;;
70800;SDS011;59616;52.170;5.386;2023-07-28T07:17:56;24.20;;;9.05;;
70800;SDS011;59616;52.170;5.386;2023-07-28T07:20:24;22.25;;;9.15;;
70800;SDS011;59616;52.170;5.386;2023-07-28T07:22:51;24.02;;;10.13;;
70800;SDS011;59616;52.170;5.386;2023-07-28T07:25:21;24.65;;;10.00;;
70800;SDS011;59616;52.170;5.386;2023-07-28T07:27:48;23.23;;;10.50;;
70800;SDS011;59616;52.170;5.386;2023-07-28T07:30:15;26.00;;;10.10;;
70800;SDS011;59616;52.170;5.386;2023-07-28T07:32:43;23.95;;;10.02;;
70800;SDS011;59616;52.170;5.386;2023-07-28T07:35:10;24.95;;;10.70;;
70800;SDS011;59616;52.170;5.386;2023-07-28T07:37:38;27.77;;;10.13;;
70800;SDS011;59616;52.170;5.386;2023-07-28T07:40:06;25.25;;;10.85;;
70800;SDS011;59616;52.170;5.386;2023-07-28T07:42:44;27.88;;;10.38;;
70800;SDS011;59616;52.170;5.386;2023-07-28T07:47:40;26.65;;;10.10;;
70800;SDS011;59616;52.170;5.386;2023-07-28T07:50:08;30.33;;;11.13;;
70800;SDS011;59616;52.170;5.386;2023-07-28T07:52:36;26.70;;;10.15;;
70800;SDS011;59616;52.170;5.386;2023-07-28T07:55:08;23.50;;;10.10;;
70800;SDS011;59616;52.170;5.386;2023-07-28T07:57:35;21.40;;;10.00;;
70800;SDS011;59616;52.170;5.386;2023-07-28T08:00:03;25.83;;;10.55;;
70800;SDS011;59616;52.170;5.386;2023-07-28T08:02:37;24.15;;;9.35;;
70800;SDS011;59616;52.170;5.386;2023-07-28T08:05:05;23.00;;;9.25;;
70800;SDS011;59616;52.170;5.386;2023-07-28T08:07:32;22.25;;;9.23;;
70800;SDS011;59616;52.170;5.386;2023-07-28T08:10:00;21.98;;;9.18;;
70800;SDS011;59616;52.170;5.386;2023-07-28T08:12:27;18.67;;;8.55;;
70800;SDS011;59616;52.170;5.386;2023-07-28T08:14:55;18.90;;;8.77;;
70800;SDS011;59616;52.170;5.386;2023-07-28T08:17:22;25.60;;;8.88;;
70800;SDS011;59616;52.170;5.386;2023-07-28T08:19:50;22.60;;;8.40;;
70800;SDS011;59616;52.170;5.386;2023-07-28T08:22:17;20.98;;;8.15;;
70800;SDS011;59616;52.170;5.386;2023-07-28T08:24:44;22.05;;;8.23;;
70800;SDS011;59616;52.170;5.386;2023-07-28T08:27:11;16.75;;;7.55;;
70800;SDS011;59616;52.170;5.386;2023-07-28T08:29:38;18.73;;;7.50;;
70800;SDS011;59616;52.170;5.386;2023-07-28T08:32:06;18.08;;;6.75;;
70800;SDS011;59616;52.170;5.386;2023-07-28T08:34:33;14.68;;;6.78;;
70800;SDS011;59616;52.170;5.386;2023-07-28T08:37:00;21.08;;;7.05;;
70800;SDS011;59616;52.170;5.386;2023-07-28T08:39:28;17.70;;;6.47;;
70800;SDS011;59616;52.170;5.386;2023-07-28T08:42:02;15.90;;;6.18;;
70800;SDS011;59616;52.170;5.386;2023-07-28T08:44:34;15.52;;;6.25;;
70800;SDS011;59616;52.170;5.386;2023-07-28T08:47:04;14.80;;;5.53;;
70800;SDS011;59616;52.170;5.386;2023-07-28T08:49:31;14.77;;;5.53;;
70800;SDS011;59616;52.170;5.386;2023-07-28T08:52:01;13.05;;;5.22;;
70800;SDS011;59616;52.170;5.386;2023-07-28T08:54:29;14.60;;;4.53;;
70800;SDS011;59616;52.170;5.386;2023-07-28T08:56:57;13.25;;;4.35;;
70800;SDS011;59616;52.170;5.386;2023-07-28T08:59:25;12.40;;;4.25;;
70800;SDS011;59616;52.170;5.386;2023-07-28T09:01:53;10.70;;;3.53;;
70800;SDS011;59616;52.170;5.386;2023-07-28T09:04:22;15.57;;;4.28;;
70800;SDS011;59616;52.170;5.386;2023-07-28T09:06:50;13.13;;;3.78;;
70800;SDS011;59616;52.170;5.386;2023-07-28T09:09:18;11.27;;;3.97;;
70800;SDS011;59616;52.170;5.386;2023-07-28T09:11:49;11.95;;;3.70;;
70800;SDS011;59616;52.170;5.386;2023-07-28T09:14:20;8.10;;;3.10;;
70800;SDS011;59616;52.170;5.386;2023-07-28T09:16:49;10.70;;;3.28;;
70800;SDS011;59616;52.170;5.386;2023-07-28T09:19:17;8.00;;;2.90;;
70800;SDS011;59616;52.170;5.386;2023-07-28T09:21:44;8.05;;;2.80;;
70800;SDS011;59616;52.170;5.386;2023-07-28T09:24:12;14.95;;;3.22;;
70800;SDS011;59616;52.170;5.386;2023-07-28T09:26:40;13.23;;;3.10;;
70800;SDS011;59616;52.170;5.386;2023-07-28T09:29:17;8.23;;;3.00;;
70800;SDS011;59616;52.170;5.386;2023-07-28T09:31:46;8.65;;;2.60;;
70800;SDS011;59616;52.170;5.386;2023-07-28T09:34:24;8.90;;;2.78;;
70800;SDS011;59616;52.170;5.386;2023-07-28T09:36:56;10.60;;;2.92;;
70800;SDS011;59616;52.170;5.386;2023-07-28T09:39:24;9.90;;;3.15;;
70800;SDS011;59616;52.170;5.386;2023-07-28T09:41:51;11.30;;;3.13;;
70800;SDS011;59616;52.170;5.386;2023-07-28T09:44:23;9.38;;;2.70;;
70800;SDS011;59616;52.170;5.386;2023-07-28T09:46:51;11.98;;;3.33;;
70800;SDS011;59616;52.170;5.386;2023-07-28T09:49:22;9.23;;;2.83;;
70800;SDS011;59616;52.170;5.386;2023-07-28T09:51:57;8.75;;;3.05;;
70800;SDS011;59616;52.170;5.386;2023-07-28T09:54:27;10.32;;;3.10;;
70800;SDS011;59616;52.170;5.386;2023-07-28T09:56:56;9.20;;;2.90;;
70800;SDS011;59616;52.170;5.386;2023-07-28T09:59:35;9.63;;;3.00;;
70800;SDS011;59616;52.170;5.386;2023-07-28T10:02:08;8.48;;;3.83;;
70800;SDS011;59616;52.170;5.386;2023-07-28T10:04:36;8.02;;;3.17;;
70800;SDS011;59616;52.170;5.386;2023-07-28T10:07:04;10.15;;;3.67;;
70800;SDS011;59616;52.170;5.386;2023-07-28T10:09:33;10.70;;;3.80;;
70800;SDS011;59616;52.170;5.386;2023-07-28T10:12:01;10.52;;;4.25;;
70800;SDS011;59616;52.170;5.386;2023-07-28T10:14:36;12.23;;;4.22;;
70800;SDS011;59616;52.170;5.386;2023-07-28T10:17:06;9.50;;;3.90;;
70800;SDS011;59616;52.170;5.386;2023-07-28T10:19:36;8.55;;;3.70;;
70800;SDS011;59616;52.170;5.386;2023-07-28T10:27:40;9.00;;;3.47;;
70800;SDS011;59616;52.170;5.386;2023-07-28T10:30:13;10.50;;;3.58;;
70800;SDS011;59616;52.170;5.386;2023-07-28T10:32:42;10.38;;;4.20;;
70800;SDS011;59616;52.170;5.386;2023-07-28T10:37:44;9.27;;;3.95;;
70800;SDS011;59616;52.170;5.386;2023-07-28T10:40:26;9.10;;;3.70;;
70800;SDS011;59616;52.170;5.386;2023-07-28T10:42:54;8.25;;;3.40;;
70800;SDS011;59616;52.170;5.386;2023-07-28T10:45:24;9.35;;;4.30;;
70800;SDS011;59616;52.170;5.386;2023-07-28T10:47:52;9.85;;;4.10;;
70800;SDS011;59616;52.170;5.386;2023-07-28T10:50:26;9.85;;;4.07;;
70800;SDS011;59616;52.170;5.386;2023-07-28T10:52:54;9.38;;;4.10;;
70800;SDS011;59616;52.170;5.386;2023-07-28T10:55:22;10.60;;;4.18;;
70800;SDS011;59616;52.170;5.386;2023-07-28T10:57:51;8.88;;;4.53;;
70800;SDS011;59616;52.170;5.386;2023-07-28T11:00:20;10.18;;;4.93;;
70800;SDS011;59616;52.170;5.386;2023-07-28T11:02:50;7.63;;;4.10;;
70800;SDS011;59616;52.170;5.386;2023-07-28T11:05:28;8.65;;;4.50;;
70800;SDS011;59616;52.170;5.386;2023-07-28T11:07:59;8.55;;;3.70;;
70800;SDS011;59616;52.170;5.386;2023-07-28T11:10:28;7.88;;;3.45;;
70800;SDS011;59616;52.170;5.386;2023-07-28T11:12:57;11.68;;;3.30;;
70800;SDS011;59616;52.170;5.386;2023-07-28T11:15:41;9.88;;;3.15;;
70800;SDS011;59616;52.170;5.386;2023-07-28T11:18:08;10.02;;;3.65;;
70800;SDS011;59616;52.170;5.386;2023-07-28T11:20:36;8.23;;;3.40;;
70800;SDS011;59616;52.170;5.386;2023-07-28T11:23:04;9.75;;;3.47;;
70800;SDS011;59616;52.170;5.386;2023-07-28T11:25:32;8.90;;;3.85;;
70800;SDS011;59616;52.170;5.386;2023-07-28T11:28:03;9.73;;;3.55;;
70800;SDS011;59616;52.170;5.386;2023-07-28T11:30:35;8.00;;;3.38;;
70800;SDS011;59616;52.170;5.386;2023-07-28T11:33:08;10.18;;;3.60;;
70800;SDS011;59616;52.170;5.386;2023-07-28T11:35:39;8.10;;;3.65;;
70800;SDS011;59616;52.170;5.386;2023-07-28T11:38:07;10.23;;;3.75;;
70800;SDS011;59616;52.170;5.386;2023-07-28T11:40:35;11.20;;;4.45;;
70800;SDS011;59616;52.170;5.386;2023-07-28T11:43:03;10.88;;;4.40;;
70800;SDS011;59616;52.170;5.386;2023-07-28T11:45:30;13.00;;;4.60;;
70800;SDS011;59616;52.170;5.386;2023-07-28T11:47:59;10.30;;;4.60;;
70800;SDS011;59616;52.170;5.386;2023-07-28T11:50:29;10.55;;;4.55;;
70800;SDS011;59616;52.170;5.386;2023-07-28T11:53:00;9.77;;;4.90;;
70800;SDS011;59616;52.170;5.386;2023-07-28T11:55:28;13.63;;;5.35;;
70800;SDS011;59616;52.170;5.386;2023-07-28T11:57:55;10.65;;;4.97;;
70800;SDS011;59616;52.170;5.386;2023-07-28T12:00:33;13.75;;;5.32;;
70800;SDS011;59616;52.170;5.386;2023-07-28T12:03:04;11.68;;;4.97;;
70800;SDS011;59616;52.170;5.386;2023-07-28T12:05:37;10.85;;;4.60;;
70800;SDS011;59616;52.170;5.386;2023-07-28T12:08:32;9.45;;;4.32;;
70800;SDS011;59616;52.170;5.386;2023-07-28T12:11:00;10.40;;;3.95;;
70800;SDS011;59616;52.170;5.386;2023-07-28T12:13:30;10.23;;;3.78;;
70800;SDS011;59616;52.170;5.386;2023-07-28T12:15:58;9.07;;;3.55;;
70800;SDS011;59616;52.170;5.386;2023-07-28T12:18:31;9.10;;;3.35;;
70800;SDS011;59616;52.170;5.386;2023-07-28T12:21:01;9.10;;;3.70;;
70800;SDS011;59616;52.170;5.386;2023-07-28T12:23:28;7.50;;;2.95;;
70800;SDS011;59616;52.170;5.386;2023-07-28T12:25:59;7.68;;;3.53;;
70800;SDS011;59616;52.170;5.386;2023-07-28T12:28:26;9.98;;;3.72;;
70800;SDS011;59616;52.170;5.386;2023-07-28T12:30:53;8.60;;;3.28;;
70800;SDS011;59616;52.170;5.386;2023-07-28T12:33:22;7.88;;;3.63;;
70800;SDS011;59616;52.170;5.386;2023-07-28T12:36:03;11.48;;;4.20;;
70800;SDS011;59616;52.170;5.386;2023-07-28T12:38:35;12.13;;;4.07;;
70800;SDS011;59616;52.170;5.386;2023-07-28T12:41:05;9.93;;;4.30;;
70800;SDS011;59616;52.170;5.386;2023-07-28T12:43:35;10.38;;;4.57;;
70800;SDS011;59616;52.170;5.386;2023-07-28T12:46:05;10.88;;;4.22;;
70800;SDS011;59616;52.170;5.386;2023-07-28T12:48:35;10.23;;;4.20;;
70800;SDS011;59616;52.170;5.386;2023-07-28T12:51:13;10.43;;;4.25;;
70800;SDS011;59616;52.170;5.386;2023-07-28T12:53:56;10.98;;;4.35;;
70800;SDS011;59616;52.170;5.386;2023-07-28T12:56:23;9.07;;;4.07;;
70800;SDS011;59616;52.170;5.386;2023-07-28T12:58:53;9.73;;;4.35;;
70800;SDS011;59616;52.170;5.386;2023-07-28T13:01:23;8.55;;;4.30;;
70800;SDS011;59616;52.170;5.386;2023-07-28T13:03:51;9.07;;;4.40;;
70800;SDS011;59616;52.170;5.386;2023-07-28T13:06:19;10.23;;;4.45;;
70800;SDS011;59616;52.170;5.386;2023-07-28T13:08:46;7.75;;;4.03;;
70800;SDS011;59616;52.170;5.386;2023-07-28T13:11:17;10.13;;;4.60;;
70800;SDS011;59616;52.170;5.386;2023-07-28T13:13:44;11.30;;;4.43;;
70800;SDS011;59616;52.170;5.386;2023-07-28T13:16:11;9.18;;;3.60;;
70800;SDS011;59616;52.170;5.386;2023-07-28T13:18:39;7.93;;;3.60;;
70800;SDS011;59616;52.170;5.386;2023-07-28T13:21:06;7.97;;;3.42;;
70800;SDS011;59616;52.170;5.386;2023-07-28T13:23:33;7.65;;;2.90;;
70800;SDS011;59616;52.170;5.386;2023-07-28T13:26:01;7.70;;;3.00;;
70800;SDS011;59616;52.170;5.386;2023-07-28T13:28:30;7.85;;;3.15;;
70800;SDS011;59616;52.170;5.386;2023-07-28T13:30:58;8.02;;;3.03;;
70800;SDS011;59616;52.170;5.386;2023-07-28T13:33:25;9.07;;;3.33;;
70800;SDS011;59616;52.170;5.386;2023-07-28T13:35:53;6.82;;;2.78;;
70800;SDS011;59616;52.170;5.386;2023-07-28T13:38:20;6.65;;;3.35;;
70800;SDS011;59616;52.170;5.386;2023-07-28T13:40:47;11.02;;;3.70;;
70800;SDS011;59616;52.170;5.386;2023-07-28T13:43:15;8.75;;;3.30;;
70800;SDS011;59616;52.170;5.386;2023-07-28T13:45:43;8.70;;;3.83;;
70800;SDS011;59616;52.170;5.386;2023-07-28T13:48:10;6.47;;;3.20;;
70800;SDS011;59616;52.170;5.386;2023-07-28T13:50:40;9.88;;;4.05;;
70800;SDS011;59616;52.170;5.386;2023-07-28T13:53:09;9.13;;;3.58;;
70800;SDS011;59616;52.170;5.386;2023-07-28T13:55:39;9.40;;;3.45;;
70800;SDS011;59616;52.170;5.386;2023-07-28T13:58:07;6.88;;;3.25;;
70800;SDS011;59616;52.170;5.386;2023-07-28T14:00:34;7.72;;;3.30;;
70800;SDS011;59616;52.170;5.386;2023-07-28T14:03:01;7.93;;;3.08;;
70800;SDS011;59616;52.170;5.386;2023-07-28T14:05:29;7.00;;;2.90;;
70800;SDS011;59616;52.170;5.386;2023-07-28T14:07:56;8.05;;;3.10;;
70800;SDS011;59616;52.170;5.386;2023-07-28T14:10:24;7.38;;;3.05;;
70800;SDS011;59616;52.170;5.386;2023-07-28T14:12:51;8.65;;;3.30;;
70800;SDS011;59616;52.170;5.386;2023-07-28T14:15:18;7.07;;;2.92;;
70800;SDS011;59616;52.170;5.386;2023-07-28T14:17:45;8.43;;;3.00;;
70800;SDS011;59616;52.170;5.386;2023-07-28T14:20:12;7.53;;;2.90;;
70800;SDS011;59616;52.170;5.386;2023-07-28T14:22:40;8.07;;;3.13;;
70800;SDS011;59616;52.170;5.386;2023-07-28T14:25:07;7.95;;;3.00;;
70800;SDS011;59616;52.170;5.386;2023-07-28T14:27:34;8.07;;;2.90;;
70800;SDS011;59616;52.170;5.386;2023-07-28T14:30:01;7.65;;;3.17;;
70800;SDS011;59616;52.170;5.386;2023-07-28T14:32:29;8.68;;;2.75;;
70800;SDS011;59616;52.170;5.386;2023-07-28T14:34:56;7.82;;;3.17;;
70800;SDS011;59616;52.170;5.386;2023-07-28T14:37:23;8.18;;;3.00;;
70800;SDS011;59616;52.170;5.386;2023-07-28T14:39:50;8.57;;;3.17;;
70800;SDS011;59616;52.170;5.386;2023-07-28T14:42:19;8.73;;;3.40;;
70800;SDS011;59616;52.170;5.386;2023-07-28T14:44:46;7.93;;;3.13;;
70800;SDS011;59616;52.170;5.386;2023-07-28T14:47:13;10.15;;;3.35;;
70800;SDS011;59616;52.170;5.386;2023-07-28T14:49:40;8.68;;;3.55;;
70800;SDS011;59616;52.170;5.386;2023-07-28T14:52:08;10.13;;;4.03;;
70800;SDS011;59616;52.170;5.386;2023-07-28T14:54:35;8.02;;;3.60;;
70800;SDS011;59616;52.170;5.386;2023-07-28T14:57:02;8.60;;;3.40;;